sensor_id;sensor_type;location;lat;lon;timestamp;temperature;humidity
17715;DHT22;8977;50.902;4.314;2023-04-06T00:00:26;12.90;96.80
17715;DHT22;8977;50.902;4.314;2023-04-06T00:02:53;12.90;96.80
17715;DHT22;8977;50.902;4.314;2023-04-06T00:05:21;12.90;96.80
17715;DHT22;8977;50.902;4.314;2023-04-06T00:07:49;12.90;96.70
17715;DHT22;8977;50.902;4.314;2023-04-06T00:10:18;12.90;96.90
17715;DHT22;8977;50.902;4.314;2023-04-06T00:12:45;12.90;96.70
17715;DHT22;8977;50.902;4.314;2023-04-06T00:15:12;12.90;96.30
17715;DHT22;8977;50.902;4.314;2023-04-06T00:17:39;13.00;96.00
17715;DHT22;8977;50.902;4.314;2023-04-06T00:20:07;12.90;96.50
17715;DHT22;8977;50.902;4.314;2023-04-06T00:22:34;12.90;97.00
17715;DHT22;8977;50.902;4.314;2023-04-06T00:25:02;12.90;97.10
17715;DHT22;8977;50.902;4.314;2023-04-06T00:27:29;12.90;96.80
17715;DHT22;8977;50.902;4.314;2023-04-06T00:29:56;12.90;96.80
17715;DHT22;8977;50.902;4.314;2023-04-06T00:32:23;12.80;96.70
17715;DHT22;8977;50.902;4.314;2023-04-06T00:34:50;12.90;96.70
17715;DHT22;8977;50.902;4.314;2023-04-06T00:37:17;12.90;96.70
17715;DHT22;8977;50.902;4.314;2023-04-06T00:39:45;12.90;96.70
17715;DHT22;8977;50.902;4.314;2023-04-06T00:42:13;12.90;96.90
17715;DHT22;8977;50.902;4.314;2023-04-06T00:44:41;12.90;96.70
17715;DHT22;8977;50.902;4.314;2023-04-06T00:47:08;12.80;96.80
17715;DHT22;8977;50.902;4.314;2023-04-06T00:49:35;12.80;97.00
17715;DHT22;8977;50.902;4.314;2023-04-06T00:52:02;12.70;97.00
17715;DHT22;8977;50.902;4.314;2023-04-06T00:54:29;12.80;97.10
17715;DHT22;8977;50.902;4.314;2023-04-06T00:56:57;12.70;97.00
17715;DHT22;8977;50.902;4.314;2023-04-06T00:59:27;12.80;97.00
17715;DHT22;8977;50.902;4.314;2023-04-06T01:01:54;12.70;97.00
17715;DHT22;8977;50.902;4.314;2023-04-06T01:04:21;12.80;97.10
17715;DHT22;8977;50.902;4.314;2023-04-06T01:06:49;12.70;97.20
17715;DHT22;8977;50.902;4.314;2023-04-06T01:09:16;12.80;97.20
17715;DHT22;8977;50.902;4.314;2023-04-06T01:11:44;12.70;97.20
17715;DHT22;8977;50.902;4.314;2023-04-06T01:14:11;12.80;97.10
17715;DHT22;8977;50.902;4.314;2023-04-06T01:16:41;12.80;97.20
17715;DHT22;8977;50.902;4.314;2023-04-06T01:19:09;12.70;97.50
17715;DHT22;8977;50.902;4.314;2023-04-06T01:21:36;12.70;97.30
17715;DHT22;8977;50.902;4.314;2023-04-06T01:24:06;12.60;97.40
17715;DHT22;8977;50.902;4.314;2023-04-06T01:26:33;12.70;97.00
17715;DHT22;8977;50.902;4.314;2023-04-06T01:29:01;12.70;97.00
17715;DHT22;8977;50.902;4.314;2023-04-06T01:31:28;12.70;97.00
17715;DHT22;8977;50.902;4.314;2023-04-06T01:33:55;12.80;97.00
17715;DHT22;8977;50.902;4.314;2023-04-06T01:36:22;12.80;97.10
17715;DHT22;8977;50.902;4.314;2023-04-06T01:38:49;12.70;96.80
17715;DHT22;8977;50.902;4.314;2023-04-06T01:41:18;12.70;96.80
17715;DHT22;8977;50.902;4.314;2023-04-06T01:43:45;12.70;97.10
17715;DHT22;8977;50.902;4.314;2023-04-06T01:46:12;12.70;97.10
17715;DHT22;8977;50.902;4.314;2023-04-06T01:48:39;12.80;96.70
17715;DHT22;8977;50.902;4.314;2023-04-06T01:51:07;12.70;96.70
17715;DHT22;8977;50.902;4.314;2023-04-06T01:53:34;12.70;96.60
17715;DHT22;8977;50.902;4.314;2023-04-06T01:56:01;12.70;96.70
17715;DHT22;8977;50.902;4.314;2023-04-06T01:58:29;12.80;96.40
17715;DHT22;8977;50.902;4.314;2023-04-06T02:00:56;12.70;96.50
17715;DHT22;8977;50.902;4.314;2023-04-06T02:03:23;12.80;96.40
17715;DHT22;8977;50.902;4.314;2023-04-06T02:05:50;12.70;96.20
17715;DHT22;8977;50.902;4.314;2023-04-06T02:08:17;12.70;96.70
17715;DHT22;8977;50.902;4.314;2023-04-06T02:10:44;12.70;96.70
17715;DHT22;8977;50.902;4.314;2023-04-06T02:13:11;12.70;96.70
17715;DHT22;8977;50.902;4.314;2023-04-06T02:15:39;12.70;96.70
17715;DHT22;8977;50.902;4.314;2023-04-06T02:18:06;12.60;96.70
17715;DHT22;8977;50.902;4.314;2023-04-06T02:20:33;12.60;96.60
17715;DHT22;8977;50.902;4.314;2023-04-06T02:23:00;12.60;96.90
17715;DHT22;8977;50.902;4.314;2023-04-06T02:25:27;12.60;96.90
17715;DHT22;8977;50.902;4.314;2023-04-06T02:27:54;12.60;96.70
17715;DHT22;8977;50.902;4.314;2023-04-06T02:30:21;12.60;96.90
17715;DHT22;8977;50.902;4.314;2023-04-06T02:32:49;12.60;96.90
17715;DHT22;8977;50.902;4.314;2023-04-06T02:35:16;12.60;96.60
17715;DHT22;8977;50.902;4.314;2023-04-06T02:37:43;12.60;96.70
17715;DHT22;8977;50.902;4.314;2023-04-06T02:40:10;12.60;96.70
17715;DHT22;8977;50.902;4.314;2023-04-06T02:42:37;12.60;96.90
17715;DHT22;8977;50.902;4.314;2023-04-06T02:45:05;12.50;96.90
17715;DHT22;8977;50.902;4.314;2023-04-06T02:47:33;12.50;96.90
17715;DHT22;8977;50.902;4.314;2023-04-06T02:50:01;12.60;96.70
17715;DHT22;8977;50.902;4.314;2023-04-06T02:52:28;12.60;96.80
17715;DHT22;8977;50.902;4.314;2023-04-06T02:54:55;12.50;96.90
17715;DHT22;8977;50.902;4.314;2023-04-06T02:57:22;12.60;96.90
17715;DHT22;8977;50.902;4.314;2023-04-06T02:59:49;12.60;96.40
17715;DHT22;8977;50.902;4.314;2023-04-06T03:02:16;12.50;96.70
17715;DHT22;8977;50.902;4.314;2023-04-06T03:04:44;12.50;97.00
17715;DHT22;8977;50.902;4.314;2023-04-06T03:07:12;12.50;97.10
17715;DHT22;8977;50.902;4.314;2023-04-06T03:09:39;12.40;97.40
17715;DHT22;8977;50.902;4.314;2023-04-06T03:12:06;12.50;97.10
17715;DHT22;8977;50.902;4.314;2023-04-06T03:14:33;12.50;96.90
17715;DHT22;8977;50.902;4.314;2023-04-06T03:17:00;12.50;96.90
17715;DHT22;8977;50.902;4.314;2023-04-06T03:19:27;12.50;96.90
17715;DHT22;8977;50.902;4.314;2023-04-06T03:21:55;12.50;97.40
17715;DHT22;8977;50.902;4.314;2023-04-06T03:24:23;12.40;97.20
17715;DHT22;8977;50.902;4.314;2023-04-06T03:26:51;12.40;97.30
17715;DHT22;8977;50.902;4.314;2023-04-06T03:29:18;12.30;97.40
17715;DHT22;8977;50.902;4.314;2023-04-06T03:31:45;12.40;97.40
17715;DHT22;8977;50.902;4.314;2023-04-06T03:34:12;12.40;97.00
17715;DHT22;8977;50.902;4.314;2023-04-06T03:36:39;12.40;97.00
17715;DHT22;8977;50.902;4.314;2023-04-06T03:39:06;12.50;97.20
17715;DHT22;8977;50.902;4.314;2023-04-06T03:41:34;12.40;97.40
17715;DHT22;8977;50.902;4.314;2023-04-06T03:44:01;12.30;97.50
17715;DHT22;8977;50.902;4.314;2023-04-06T03:46:28;12.30;97.70
17715;DHT22;8977;50.902;4.314;2023-04-06T03:48:55;12.40;97.80
17715;DHT22;8977;50.902;4.314;2023-04-06T03:51:22;12.40;97.90
17715;DHT22;8977;50.902;4.314;2023-04-06T03:53:49;12.40;98.00
17715;DHT22;8977;50.902;4.314;2023-04-06T03:56:16;12.40;97.90
17715;DHT22;8977;50.902;4.314;2023-04-06T03:58:45;12.40;97.80
17715;DHT22;8977;50.902;4.314;2023-04-06T04:01:16;12.30;97.80
17715;DHT22;8977;50.902;4.314;2023-04-06T04:03:43;12.30;97.80
17715;DHT22;8977;50.902;4.314;2023-04-06T04:06:10;12.30;97.90
17715;DHT22;8977;50.902;4.314;2023-04-06T04:08:37;12.30;98.20
17715;DHT22;8977;50.902;4.314;2023-04-06T04:11:04;12.30;98.30
17715;DHT22;8977;50.902;4.314;2023-04-06T04:13:31;12.30;98.50
17715;DHT22;8977;50.902;4.314;2023-04-06T04:15:59;12.30;98.20
17715;DHT22;8977;50.902;4.314;2023-04-06T04:18:26;12.30;98.40
17715;DHT22;8977;50.902;4.314;2023-04-06T04:20:53;12.30;98.40
17715;DHT22;8977;50.902;4.314;2023-04-06T04:23:20;12.30;98.40
17715;DHT22;8977;50.902;4.314;2023-04-06T04:25:47;12.30;98.50
17715;DHT22;8977;50.902;4.314;2023-04-06T04:28:14;12.30;98.60
17715;DHT22;8977;50.902;4.314;2023-04-06T04:30:41;12.30;98.70
17715;DHT22;8977;50.902;4.314;2023-04-06T04:33:09;12.30;98.90
17715;DHT22;8977;50.902;4.314;2023-04-06T04:35:36;12.20;99.00
17715;DHT22;8977;50.902;4.314;2023-04-06T04:38:03;12.20;99.00
17715;DHT22;8977;50.902;4.314;2023-04-06T04:40:30;12.20;99.10
17715;DHT22;8977;50.902;4.314;2023-04-06T04:42:57;12.20;99.30
17715;DHT22;8977;50.902;4.314;2023-04-06T04:45:24;12.20;99.40
17715;DHT22;8977;50.902;4.314;2023-04-06T04:47:51;12.20;99.30
17715;DHT22;8977;50.902;4.314;2023-04-06T04:50:19;12.20;99.60
17715;DHT22;8977;50.902;4.314;2023-04-06T04:52:46;12.20;99.80
17715;DHT22;8977;50.902;4.314;2023-04-06T04:55:13;12.10;99.80
17715;DHT22;8977;50.902;4.314;2023-04-06T04:57:40;12.20;99.90
17715;DHT22;8977;50.902;4.314;2023-04-06T05:00:08;12.20;99.90
17715;DHT22;8977;50.902;4.314;2023-04-06T05:02:35;12.20;99.90
17715;DHT22;8977;50.902;4.314;2023-04-06T05:05:02;12.10;99.90
17715;DHT22;8977;50.902;4.314;2023-04-06T05:07:31;12.20;99.90
17715;DHT22;8977;50.902;4.314;2023-04-06T05:09:57;12.10;99.90
17715;DHT22;8977;50.902;4.314;2023-04-06T05:12:24;12.20;99.90
17715;DHT22;8977;50.902;4.314;2023-04-06T05:14:53;12.10;99.90
17715;DHT22;8977;50.902;4.314;2023-04-06T05:17:20;12.20;99.90
17715;DHT22;8977;50.902;4.314;2023-04-06T05:19:47;12.20;99.90
17715;DHT22;8977;50.902;4.314;2023-04-06T05:22:14;12.20;99.90
17715;DHT22;8977;50.902;4.314;2023-04-06T05:24:44;12.20;99.90
17715;DHT22;8977;50.902;4.314;2023-04-06T05:27:12;12.20;99.90
17715;DHT22;8977;50.902;4.314;2023-04-06T05:29:39;12.20;99.90
17715;DHT22;8977;50.902;4.314;2023-04-06T05:32:06;12.20;99.90
17715;DHT22;8977;50.902;4.314;2023-04-06T05:34:33;12.20;99.90
17715;DHT22;8977;50.902;4.314;2023-04-06T05:37:00;12.20;99.90
17715;DHT22;8977;50.902;4.314;2023-04-06T05:39:27;12.30;99.90
17715;DHT22;8977;50.902;4.314;2023-04-06T05:41:56;12.20;99.90
17715;DHT22;8977;50.902;4.314;2023-04-06T05:44:22;12.20;99.90
17715;DHT22;8977;50.902;4.314;2023-04-06T05:46:50;12.10;99.90
17715;DHT22;8977;50.902;4.314;2023-04-06T05:49:16;12.10;99.90
17715;DHT22;8977;50.902;4.314;2023-04-06T05:51:43;12.10;99.90
17715;DHT22;8977;50.902;4.314;2023-04-06T05:54:10;12.10;99.90
17715;DHT22;8977;50.902;4.314;2023-04-06T05:56:37;12.20;99.90
17715;DHT22;8977;50.902;4.314;2023-04-06T05:59:05;12.10;99.90
17715;DHT22;8977;50.902;4.314;2023-04-06T06:01:33;12.10;99.90
17715;DHT22;8977;50.902;4.314;2023-04-06T06:04:00;12.10;99.90
17715;DHT22;8977;50.902;4.314;2023-04-06T06:06:28;12.20;99.90
17715;DHT22;8977;50.902;4.314;2023-04-06T06:08:57;12.20;99.90
17715;DHT22;8977;50.902;4.314;2023-04-06T06:11:26;12.20;99.90
17715;DHT22;8977;50.902;4.314;2023-04-06T06:13:53;12.20;99.90
17715;DHT22;8977;50.902;4.314;2023-04-06T06:16:21;12.20;99.90
17715;DHT22;8977;50.902;4.314;2023-04-06T06:18:48;12.20;99.90
17715;DHT22;8977;50.902;4.314;2023-04-06T06:21:15;12.30;99.90
17715;DHT22;8977;50.902;4.314;2023-04-06T06:23:43;12.30;99.90
17715;DHT22;8977;50.902;4.314;2023-04-06T06:26:10;12.20;99.90
17715;DHT22;8977;50.902;4.314;2023-04-06T06:28:37;12.30;99.90
17715;DHT22;8977;50.902;4.314;2023-04-06T06:31:04;12.20;99.90
17715;DHT22;8977;50.902;4.314;2023-04-06T06:33:32;12.20;99.90
17715;DHT22;8977;50.902;4.314;2023-04-06T06:35:59;12.20;99.90
17715;DHT22;8977;50.902;4.314;2023-04-06T06:38:26;12.10;99.90
17715;DHT22;8977;50.902;4.314;2023-04-06T06:40:53;12.10;99.90
17715;DHT22;8977;50.902;4.314;2023-04-06T06:43:20;12.10;99.90
17715;DHT22;8977;50.902;4.314;2023-04-06T06:45:47;12.10;99.90
17715;DHT22;8977;50.902;4.314;2023-04-06T06:48:14;12.10;99.90
17715;DHT22;8977;50.902;4.314;2023-04-06T06:50:42;12.20;99.90
17715;DHT22;8977;50.902;4.314;2023-04-06T06:53:09;12.10;99.90
17715;DHT22;8977;50.902;4.314;2023-04-06T06:55:37;12.10;99.90
17715;DHT22;8977;50.902;4.314;2023-04-06T06:58:04;12.00;99.90
17715;DHT22;8977;50.902;4.314;2023-04-06T07:00:31;12.10;99.90
17715;DHT22;8977;50.902;4.314;2023-04-06T07:02:58;12.00;99.90
17715;DHT22;8977;50.902;4.314;2023-04-06T07:05:25;12.10;99.90
17715;DHT22;8977;50.902;4.314;2023-04-06T07:07:54;12.10;99.90
17715;DHT22;8977;50.902;4.314;2023-04-06T07:10:21;12.00;99.90
17715;DHT22;8977;50.902;4.314;2023-04-06T07:12:48;12.00;99.90
17715;DHT22;8977;50.902;4.314;2023-04-06T07:15:16;12.00;99.90
17715;DHT22;8977;50.902;4.314;2023-04-06T07:17:43;12.00;99.90
17715;DHT22;8977;50.902;4.314;2023-04-06T07:20:11;12.10;99.90
17715;DHT22;8977;50.902;4.314;2023-04-06T07:22:38;12.00;99.90
17715;DHT22;8977;50.902;4.314;2023-04-06T07:25:08;12.10;99.90
17715;DHT22;8977;50.902;4.314;2023-04-06T07:27:35;12.10;99.90
17715;DHT22;8977;50.902;4.314;2023-04-06T07:30:02;12.10;99.90
17715;DHT22;8977;50.902;4.314;2023-04-06T07:32:29;12.00;99.90
17715;DHT22;8977;50.902;4.314;2023-04-06T07:34:56;12.10;99.90
17715;DHT22;8977;50.902;4.314;2023-04-06T07:37:23;12.10;99.90
17715;DHT22;8977;50.902;4.314;2023-04-06T07:39:50;12.10;99.90
17715;DHT22;8977;50.902;4.314;2023-04-06T07:42:19;12.10;99.90
17715;DHT22;8977;50.902;4.314;2023-04-06T07:44:46;12.10;99.90
17715;DHT22;8977;50.902;4.314;2023-04-06T07:47:13;12.20;99.90
17715;DHT22;8977;50.902;4.314;2023-04-06T07:49:40;12.30;99.90
17715;DHT22;8977;50.902;4.314;2023-04-06T07:52:06;12.30;99.90
17715;DHT22;8977;50.902;4.314;2023-04-06T07:54:33;12.30;99.90
17715;DHT22;8977;50.902;4.314;2023-04-06T07:57:00;12.20;99.90
17715;DHT22;8977;50.902;4.314;2023-04-06T07:59:29;12.30;99.90
17715;DHT22;8977;50.902;4.314;2023-04-06T08:01:56;12.20;99.90
17715;DHT22;8977;50.902;4.314;2023-04-06T08:04:22;12.10;99.90
17715;DHT22;8977;50.902;4.314;2023-04-06T08:06:50;12.10;99.90
17715;DHT22;8977;50.902;4.314;2023-04-06T08:09:17;12.10;99.90
17715;DHT22;8977;50.902;4.314;2023-04-06T08:11:43;12.00;99.90
17715;DHT22;8977;50.902;4.314;2023-04-06T08:14:11;12.10;99.90
17715;DHT22;8977;50.902;4.314;2023-04-06T08:16:40;12.00;99.90
17715;DHT22;8977;50.902;4.314;2023-04-06T08:19:07;12.00;99.90
17715;DHT22;8977;50.902;4.314;2023-04-06T08:21:35;12.00;99.90
17715;DHT22;8977;50.902;4.314;2023-04-06T08:24:02;12.00;99.90
17715;DHT22;8977;50.902;4.314;2023-04-06T08:26:29;12.10;99.90
17715;DHT22;8977;50.902;4.314;2023-04-06T08:28:56;12.10;99.90
17715;DHT22;8977;50.902;4.314;2023-04-06T08:31:23;12.10;99.90
17715;DHT22;8977;50.902;4.314;2023-04-06T08:33:51;12.10;99.90
17715;DHT22;8977;50.902;4.314;2023-04-06T08:36:18;12.10;99.90
17715;DHT22;8977;50.902;4.314;2023-04-06T08:38:48;12.10;99.90
17715;DHT22;8977;50.902;4.314;2023-04-06T08:41:16;12.10;99.90
17715;DHT22;8977;50.902;4.314;2023-04-06T08:43:44;12.10;99.90
17715;DHT22;8977;50.902;4.314;2023-04-06T08:46:13;12.00;99.90
17715;DHT22;8977;50.902;4.314;2023-04-06T08:48:42;12.10;99.90
17715;DHT22;8977;50.902;4.314;2023-04-06T08:51:12;12.20;99.90
17715;DHT22;8977;50.902;4.314;2023-04-06T08:53:39;12.10;99.90
17715;DHT22;8977;50.902;4.314;2023-04-06T08:56:07;12.10;99.90
17715;DHT22;8977;50.902;4.314;2023-04-06T08:58:38;12.20;99.90
17715;DHT22;8977;50.902;4.314;2023-04-06T09:01:07;12.30;99.90
17715;DHT22;8977;50.902;4.314;2023-04-06T09:03:37;12.20;99.90
17715;DHT22;8977;50.902;4.314;2023-04-06T09:06:05;12.10;99.90
17715;DHT22;8977;50.902;4.314;2023-04-06T09:08:34;12.00;99.90
17715;DHT22;8977;50.902;4.314;2023-04-06T09:11:02;12.00;99.90
17715;DHT22;8977;50.902;4.314;2023-04-06T09:13:29;12.10;99.90
17715;DHT22;8977;50.902;4.314;2023-04-06T09:16:00;12.10;99.90
17715;DHT22;8977;50.902;4.314;2023-04-06T09:18:31;12.10;99.90
17715;DHT22;8977;50.902;4.314;2023-04-06T09:21:00;12.00;99.90
17715;DHT22;8977;50.902;4.314;2023-04-06T09:23:27;12.10;99.90
17715;DHT22;8977;50.902;4.314;2023-04-06T09:26:06;12.20;99.90
17715;DHT22;8977;50.902;4.314;2023-04-06T09:28:44;12.30;99.90
17715;DHT22;8977;50.902;4.314;2023-04-06T09:31:12;12.20;99.90
17715;DHT22;8977;50.902;4.314;2023-04-06T09:33:41;12.10;99.90
17715;DHT22;8977;50.902;4.314;2023-04-06T09:36:08;12.10;99.90
17715;DHT22;8977;50.902;4.314;2023-04-06T09:38:37;12.20;99.90
17715;DHT22;8977;50.902;4.314;2023-04-06T09:41:06;12.20;99.90
17715;DHT22;8977;50.902;4.314;2023-04-06T09:43:33;12.10;99.90
17715;DHT22;8977;50.902;4.314;2023-04-06T09:46:00;12.20;99.90
17715;DHT22;8977;50.902;4.314;2023-04-06T09:48:31;12.20;99.90
17715;DHT22;8977;50.902;4.314;2023-04-06T09:51:03;12.20;99.90
17715;DHT22;8977;50.902;4.314;2023-04-06T09:53:32;12.10;99.90
17715;DHT22;8977;50.902;4.314;2023-04-06T09:56:03;12.30;99.90
17715;DHT22;8977;50.902;4.314;2023-04-06T09:58:34;12.30;99.90
17715;DHT22;8977;50.902;4.314;2023-04-06T10:01:05;12.20;99.90
17715;DHT22;8977;50.902;4.314;2023-04-06T10:03:38;12.30;99.90
17715;DHT22;8977;50.902;4.314;2023-04-06T10:06:11;12.20;99.90
17715;DHT22;8977;50.902;4.314;2023-04-06T10:08:40;12.20;99.90
17715;DHT22;8977;50.902;4.314;2023-04-06T10:11:08;12.20;99.90
17715;DHT22;8977;50.902;4.314;2023-04-06T10:13:37;12.10;99.90
17715;DHT22;8977;50.902;4.314;2023-04-06T10:16:05;12.20;99.90
17715;DHT22;8977;50.902;4.314;2023-04-06T10:18:32;12.20;99.90
17715;DHT22;8977;50.902;4.314;2023-04-06T10:21:04;12.20;99.90
17715;DHT22;8977;50.902;4.314;2023-04-06T10:23:35;12.30;99.90
17715;DHT22;8977;50.902;4.314;2023-04-06T10:26:02;12.30;99.90
17715;DHT22;8977;50.902;4.314;2023-04-06T10:28:32;12.30;99.90
17715;DHT22;8977;50.902;4.314;2023-04-06T10:31:03;12.30;99.90
17715;DHT22;8977;50.902;4.314;2023-04-06T10:33:31;12.30;99.90
17715;DHT22;8977;50.902;4.314;2023-04-06T10:36:08;12.30;99.90
17715;DHT22;8977;50.902;4.314;2023-04-06T10:38:37;12.30;99.90
17715;DHT22;8977;50.902;4.314;2023-04-06T10:41:05;12.20;99.90
17715;DHT22;8977;50.902;4.314;2023-04-06T10:43:35;12.20;99.90
17715;DHT22;8977;50.902;4.314;2023-04-06T10:46:05;12.30;99.90
17715;DHT22;8977;50.902;4.314;2023-04-06T10:48:39;12.30;99.90
17715;DHT22;8977;50.902;4.314;2023-04-06T10:51:10;12.30;99.90
17715;DHT22;8977;50.902;4.314;2023-04-06T10:53:38;12.30;99.90
17715;DHT22;8977;50.902;4.314;2023-04-06T10:56:10;12.40;99.90
17715;DHT22;8977;50.902;4.314;2023-04-06T10:58:38;12.20;99.90
17715;DHT22;8977;50.902;4.314;2023-04-06T11:01:06;12.20;99.90
17715;DHT22;8977;50.902;4.314;2023-04-06T11:03:42;12.10;99.90
17715;DHT22;8977;50.902;4.314;2023-04-06T11:06:10;12.20;99.90
17715;DHT22;8977;50.902;4.314;2023-04-06T11:08:38;12.30;99.90
17715;DHT22;8977;50.902;4.314;2023-04-06T11:11:06;12.30;99.90
17715;DHT22;8977;50.902;4.314;2023-04-06T11:13:41;12.30;99.90
17715;DHT22;8977;50.902;4.314;2023-04-06T11:16:14;12.40;99.90
17715;DHT22;8977;50.902;4.314;2023-04-06T11:18:53;12.30;99.90
17715;DHT22;8977;50.902;4.314;2023-04-06T11:21:30;12.40;99.90
17715;DHT22;8977;50.902;4.314;2023-04-06T11:24:05;12.40;99.90
17715;DHT22;8977;50.902;4.314;2023-04-06T11:26:36;12.40;99.90
17715;DHT22;8977;50.902;4.314;2023-04-06T11:29:03;12.30;99.90
17715;DHT22;8977;50.902;4.314;2023-04-06T11:31:34;12.40;99.90
17715;DHT22;8977;50.902;4.314;2023-04-06T11:34:09;12.50;99.90
17715;DHT22;8977;50.902;4.314;2023-04-06T11:36:40;12.40;99.90
17715;DHT22;8977;50.902;4.314;2023-04-06T11:39:07;12.40;99.90
17715;DHT22;8977;50.902;4.314;2023-04-06T11:41:34;12.50;99.90
17715;DHT22;8977;50.902;4.314;2023-04-06T11:44:01;12.30;99.90
17715;DHT22;8977;50.902;4.314;2023-04-06T11:46:30;12.30;99.90
17715;DHT22;8977;50.902;4.314;2023-04-06T11:48:58;12.30;99.90
17715;DHT22;8977;50.902;4.314;2023-04-06T11:51:26;12.30;99.90
17715;DHT22;8977;50.902;4.314;2023-04-06T11:53:53;12.30;99.90
17715;DHT22;8977;50.902;4.314;2023-04-06T11:56:28;12.30;99.90
17715;DHT22;8977;50.902;4.314;2023-04-06T11:58:55;12.40;99.90
17715;DHT22;8977;50.902;4.314;2023-04-06T12:01:23;12.40;99.90
17715;DHT22;8977;50.902;4.314;2023-04-06T12:03:53;12.40;99.90
17715;DHT22;8977;50.902;4.314;2023-04-06T12:06:20;12.40;99.90
17715;DHT22;8977;50.902;4.314;2023-04-06T12:08:47;12.30;99.90
17715;DHT22;8977;50.902;4.314;2023-04-06T12:11:13;12.30;99.90
17715;DHT22;8977;50.902;4.314;2023-04-06T12:13:44;12.30;99.90
17715;DHT22;8977;50.902;4.314;2023-04-06T12:16:11;12.40;99.90
17715;DHT22;8977;50.902;4.314;2023-04-06T12:18:38;12.50;99.90
17715;DHT22;8977;50.902;4.314;2023-04-06T12:21:07;12.40;99.90
17715;DHT22;8977;50.902;4.314;2023-04-06T12:23:34;12.40;99.90
17715;DHT22;8977;50.902;4.314;2023-04-06T12:26:01;12.60;99.90
17715;DHT22;8977;50.902;4.314;2023-04-06T12:28:28;12.50;99.90
17715;DHT22;8977;50.902;4.314;2023-04-06T12:30:55;12.50;99.90
17715;DHT22;8977;50.902;4.314;2023-04-06T12:33:22;12.40;99.90
17715;DHT22;8977;50.902;4.314;2023-04-06T12:35:49;12.50;99.90
17715;DHT22;8977;50.902;4.314;2023-04-06T12:38:18;12.40;99.90
17715;DHT22;8977;50.902;4.314;2023-04-06T12:40:46;12.40;99.90
17715;DHT22;8977;50.902;4.314;2023-04-06T12:43:13;12.40;99.90
17715;DHT22;8977;50.902;4.314;2023-04-06T12:45:40;12.50;99.90
17715;DHT22;8977;50.902;4.314;2023-04-06T12:48:07;12.50;99.90
17715;DHT22;8977;50.902;4.314;2023-04-06T12:50:34;12.40;99.90
17715;DHT22;8977;50.902;4.314;2023-04-06T12:53:01;12.50;99.90
17715;DHT22;8977;50.902;4.314;2023-04-06T12:55:31;12.40;99.90
17715;DHT22;8977;50.902;4.314;2023-04-06T12:58:01;12.30;99.90
17715;DHT22;8977;50.902;4.314;2023-04-06T13:00:28;12.40;99.90
17715;DHT22;8977;50.902;4.314;2023-04-06T13:02:56;12.40;99.90
17715;DHT22;8977;50.902;4.314;2023-04-06T13:05:23;12.40;99.90
17715;DHT22;8977;50.902;4.314;2023-04-06T13:07:50;12.50;99.90
17715;DHT22;8977;50.902;4.314;2023-04-06T13:10:17;12.50;99.90
17715;DHT22;8977;50.902;4.314;2023-04-06T13:12:45;12.40;99.90
17715;DHT22;8977;50.902;4.314;2023-04-06T13:15:12;12.40;99.90
17715;DHT22;8977;50.902;4.314;2023-04-06T13:17:39;12.40;99.90
17715;DHT22;8977;50.902;4.314;2023-04-06T13:20:07;12.40;99.90
17715;DHT22;8977;50.902;4.314;2023-04-06T13:22:34;12.30;99.90
17715;DHT22;8977;50.902;4.314;2023-04-06T13:25:01;12.30;99.90
17715;DHT22;8977;50.902;4.314;2023-04-06T13:27:28;12.30;99.90
17715;DHT22;8977;50.902;4.314;2023-04-06T13:30:00;12.30;99.90
17715;DHT22;8977;50.902;4.314;2023-04-06T13:32:28;12.40;99.90
17715;DHT22;8977;50.902;4.314;2023-04-06T13:34:55;12.30;99.90
17715;DHT22;8977;50.902;4.314;2023-04-06T13:37:22;12.30;99.90
17715;DHT22;8977;50.902;4.314;2023-04-06T13:39:49;12.40;99.90
17715;DHT22;8977;50.902;4.314;2023-04-06T13:42:16;12.50;99.90
17715;DHT22;8977;50.902;4.314;2023-04-06T13:44:43;12.40;99.90
17715;DHT22;8977;50.902;4.314;2023-04-06T13:47:13;12.50;99.90
17715;DHT22;8977;50.902;4.314;2023-04-06T13:49:41;12.50;99.90
17715;DHT22;8977;50.902;4.314;2023-04-06T13:52:08;12.50;99.90
17715;DHT22;8977;50.902;4.314;2023-04-06T13:54:36;12.40;99.90
17715;DHT22;8977;50.902;4.314;2023-04-06T13:57:03;12.40;99.90
17715;DHT22;8977;50.902;4.314;2023-04-06T13:59:32;12.50;99.90
17715;DHT22;8977;50.902;4.314;2023-04-06T14:01:59;12.40;99.90
17715;DHT22;8977;50.902;4.314;2023-04-06T14:04:28;12.40;99.90
17715;DHT22;8977;50.902;4.314;2023-04-06T14:06:55;12.40;99.90
17715;DHT22;8977;50.902;4.314;2023-04-06T14:09:21;12.40;99.90
17715;DHT22;8977;50.902;4.314;2023-04-06T14:11:48;12.40;99.90
17715;DHT22;8977;50.902;4.314;2023-04-06T14:14:15;12.40;99.90
17715;DHT22;8977;50.902;4.314;2023-04-06T14:16:43;12.40;99.90
17715;DHT22;8977;50.902;4.314;2023-04-06T14:19:10;12.40;99.90
17715;DHT22;8977;50.902;4.314;2023-04-06T14:21:39;12.40;99.90
17715;DHT22;8977;50.902;4.314;2023-04-06T14:24:07;12.40;99.90
17715;DHT22;8977;50.902;4.314;2023-04-06T14:26:35;12.40;99.90
17715;DHT22;8977;50.902;4.314;2023-04-06T14:29:02;12.40;99.90
17715;DHT22;8977;50.902;4.314;2023-04-06T14:31:29;12.50;99.90
17715;DHT22;8977;50.902;4.314;2023-04-06T14:33:57;12.60;99.90
17715;DHT22;8977;50.902;4.314;2023-04-06T14:36:24;12.60;99.90
17715;DHT22;8977;50.902;4.314;2023-04-06T14:38:54;12.50;99.90
17715;DHT22;8977;50.902;4.314;2023-04-06T14:41:23;12.50;99.90
17715;DHT22;8977;50.902;4.314;2023-04-06T14:43:51;12.50;99.90
17715;DHT22;8977;50.902;4.314;2023-04-06T14:46:18;12.50;99.90
17715;DHT22;8977;50.902;4.314;2023-04-06T14:48:46;12.50;99.90
17715;DHT22;8977;50.902;4.314;2023-04-06T14:51:13;12.60;99.90
17715;DHT22;8977;50.902;4.314;2023-04-06T14:53:40;12.60;99.90
17715;DHT22;8977;50.902;4.314;2023-04-06T14:56:08;12.60;99.90
17715;DHT22;8977;50.902;4.314;2023-04-06T14:58:35;12.60;99.90
17715;DHT22;8977;50.902;4.314;2023-04-06T15:01:02;12.60;99.90
17715;DHT22;8977;50.902;4.314;2023-04-06T15:03:29;12.70;99.90
17715;DHT22;8977;50.902;4.314;2023-04-06T15:05:57;12.80;99.90
17715;DHT22;8977;50.902;4.314;2023-04-06T15:08:24;12.80;99.90
17715;DHT22;8977;50.902;4.314;2023-04-06T15:10:51;12.80;99.90
17715;DHT22;8977;50.902;4.314;2023-04-06T15:13:21;12.70;99.90
17715;DHT22;8977;50.902;4.314;2023-04-06T15:15:50;12.70;99.90
17715;DHT22;8977;50.902;4.314;2023-04-06T15:18:18;12.70;99.90
17715;DHT22;8977;50.902;4.314;2023-04-06T15:20:45;12.80;99.90
17715;DHT22;8977;50.902;4.314;2023-04-06T15:23:12;12.80;99.90
17715;DHT22;8977;50.902;4.314;2023-04-06T15:25:38;12.80;99.90
17715;DHT22;8977;50.902;4.314;2023-04-06T15:28:06;12.80;99.90
17715;DHT22;8977;50.902;4.314;2023-04-06T15:30:35;12.80;99.90
17715;DHT22;8977;50.902;4.314;2023-04-06T15:33:03;12.80;99.90
17715;DHT22;8977;50.902;4.314;2023-04-06T15:35:31;12.90;99.90
17715;DHT22;8977;50.902;4.314;2023-04-06T15:37:59;12.90;99.90
17715;DHT22;8977;50.902;4.314;2023-04-06T15:40:26;13.00;99.90
17715;DHT22;8977;50.902;4.314;2023-04-06T15:42:53;12.90;99.90
17715;DHT22;8977;50.902;4.314;2023-04-06T15:45:20;12.90;99.90
17715;DHT22;8977;50.902;4.314;2023-04-06T15:47:48;13.00;99.90